createdAt,value
2019-04-01T00:01:10.461Z,62.20
2019-04-01T00:03:39.261Z,62.30
2019-04-01T00:06:07.974Z,62.90
2019-04-01T00:08:37.070Z,62.90
2019-04-01T00:11:06.497Z,62.90
2019-04-01T00:13:35.441Z,63.00
2019-04-01T00:16:05.086Z,62.80
2019-04-01T00:18:33.920Z,63.30
2019-04-01T00:21:03.221Z,63.50
2019-04-01T00:23:32.070Z,63.80
2019-04-01T00:26:00.890Z,64.10
2019-04-01T00:28:29.790Z,64.40
2019-04-01T00:30:58.781Z,63.80
2019-04-01T00:33:27.620Z,63.70
2019-04-01T00:35:56.592Z,63.40
2019-04-01T00:38:25.361Z,63.40
2019-04-01T00:40:54.332Z,63.40
2019-04-01T00:43:27.653Z,63.50
2019-04-01T00:45:58.180Z,63.70
2019-04-01T00:48:27.021Z,64.10
2019-04-01T00:50:55.831Z,64.60
2019-04-01T00:53:24.632Z,64.40
2019-04-01T00:55:53.671Z,64.10
2019-04-01T00:58:22.680Z,64.30
2019-04-01T01:00:51.660Z,64.60
2019-04-01T01:03:20.620Z,65.30
2019-04-01T01:05:49.451Z,66.50
2019-04-01T01:08:18.176Z,67.00
2019-04-01T01:10:47.091Z,66.80
2019-04-01T01:13:15.944Z,66.50
2019-04-01T01:15:44.842Z,66.30
2019-04-01T01:18:13.671Z,66.10
2019-04-01T01:20:42.842Z,66.30
2019-04-01T01:23:11.697Z,65.90
2019-04-01T01:25:40.701Z,65.40
2019-04-01T01:28:09.461Z,65.70
2019-04-01T01:30:38.373Z,65.00
2019-04-01T01:33:07.239Z,64.70
2019-04-01T01:35:36.261Z,64.30
2019-04-01T01:38:05.941Z,64.10
2019-04-01T01:40:35.001Z,64.00
2019-04-01T01:43:04.997Z,64.20
2019-04-01T01:45:33.930Z,64.60
2019-04-01T01:48:03.482Z,64.60
2019-04-01T01:50:32.441Z,64.30
2019-04-01T01:53:01.581Z,64.10
2019-04-01T01:55:30.371Z,64.80
2019-04-01T01:57:59.371Z,64.90
2019-04-01T02:00:29.071Z,65.20
2019-04-01T02:02:58.084Z,65.00
2019-04-01T02:05:26.973Z,65.50
2019-04-01T02:07:56.050Z,65.70
2019-04-01T02:10:24.990Z,65.30
2019-04-01T02:12:53.821Z,65.60
2019-04-01T02:15:22.520Z,65.90
2019-04-01T02:17:51.434Z,65.70
2019-04-01T02:20:20.280Z,65.80
2019-04-01T02:22:49.260Z,65.80
2019-04-01T02:25:18.041Z,65.80
2019-04-01T02:27:46.812Z,65.80
2019-04-01T02:30:15.623Z,65.70
2019-04-01T02:32:44.531Z,66.70
2019-04-01T02:35:13.397Z,66.20
2019-04-01T02:37:42.222Z,66.20
2019-04-01T02:40:11.032Z,66.20
2019-04-01T02:42:39.930Z,65.70
2019-04-01T02:45:08.892Z,65.70
2019-04-01T02:47:37.833Z,66.10
2019-04-01T02:50:07.361Z,66.20
2019-04-01T02:52:36.411Z,66.80
2019-04-01T02:55:07.357Z,66.60
2019-04-01T02:57:36.880Z,66.90
2019-04-01T03:00:06.225Z,66.90
2019-04-01T03:02:35.142Z,66.70
2019-04-01T03:05:05.571Z,67.10
2019-04-01T03:07:34.552Z,66.80
2019-04-01T03:10:04.998Z,67.10
2019-04-01T03:12:33.782Z,67.00
2019-04-01T03:15:03.215Z,67.20
2019-04-01T03:17:32.252Z,67.60
2019-04-01T03:20:01.072Z,66.80
2019-04-01T03:22:30.041Z,67.00
2019-04-01T03:24:58.864Z,66.90
2019-04-01T03:27:27.804Z,66.70
2019-04-01T03:29:56.700Z,67.00
2019-04-01T03:32:25.597Z,66.70
2019-04-01T03:34:54.501Z,66.90
2019-04-01T03:37:23.228Z,66.50
2019-04-01T03:39:52.223Z,67.40
2019-04-01T03:42:21.744Z,66.10
2019-04-01T03:44:54.774Z,65.20
2019-04-01T03:47:20.470Z,65.20
2019-04-01T03:49:49.350Z,66.20
2019-04-01T03:52:18.212Z,65.40
2019-04-01T03:54:46.866Z,65.20
2019-04-01T03:57:15.713Z,65.30
2019-04-01T03:59:44.672Z,64.60
2019-04-01T04:02:13.612Z,65.20
2019-04-01T04:04:42.612Z,65.50
2019-04-01T04:07:11.611Z,65.60
2019-04-01T04:09:40.379Z,65.00
2019-04-01T04:12:09.548Z,66.80
2019-04-01T04:14:38.362Z,66.50
2019-04-01T04:17:07.749Z,65.80
2019-04-01T04:19:36.630Z,66.10
2019-04-01T04:22:05.829Z,66.60
2019-04-01T04:24:34.781Z,66.00
2019-04-01T04:27:04.496Z,66.10
2019-04-01T04:29:33.371Z,66.40
2019-04-01T04:32:02.344Z,65.90
2019-04-01T04:34:31.241Z,65.50
2019-04-01T04:37:00.141Z,65.30
2019-04-01T04:39:29.137Z,66.70
2019-04-01T04:41:57.919Z,65.60
2019-04-01T04:44:26.788Z,66.00
2019-04-01T04:46:55.577Z,66.00
2019-04-01T04:49:24.342Z,65.60
2019-04-01T04:51:53.223Z,65.60
2019-04-01T04:54:22.191Z,65.20
2019-04-01T04:56:51.060Z,64.90
2019-04-01T04:59:20.051Z,65.20
2019-04-01T05:01:50.371Z,65.30
2019-04-01T05:04:19.361Z,66.20
2019-04-01T05:06:48.382Z,65.60
2019-04-01T05:09:17.202Z,66.10
2019-04-01T05:11:46.331Z,65.80
2019-04-01T05:14:15.090Z,64.90
2019-04-01T05:16:43.950Z,65.00
2019-04-01T05:19:12.751Z,66.00
2019-04-01T05:21:42.081Z,66.40
2019-04-01T05:24:11.330Z,66.10
2019-04-01T05:26:40.240Z,66.20
2019-04-01T05:29:08.984Z,66.60
2019-04-01T05:31:37.854Z,66.20
2019-04-01T05:34:06.824Z,66.40
2019-04-01T05:36:35.851Z,66.20
2019-04-01T05:39:06.800Z,66.20
2019-04-01T05:41:36.100Z,65.00
2019-04-01T05:44:05.903Z,66.10
2019-04-01T05:46:34.830Z,65.10
2019-04-01T05:49:04.809Z,64.70
2019-04-01T05:51:33.602Z,65.20
2019-04-01T05:54:02.831Z,66.30
2019-04-01T05:56:31.770Z,65.30
2019-04-01T05:59:00.810Z,64.40
2019-04-01T06:01:43.590Z,62.80
2019-04-01T06:04:12.640Z,60.80
2019-04-01T06:06:41.561Z,61.60
2019-04-01T06:09:10.352Z,60.90
2019-04-01T06:11:39.270Z,61.50
2019-04-01T06:14:08.420Z,65.10
2019-04-01T06:16:37.221Z,62.50
2019-04-01T06:19:06.467Z,64.00
2019-04-01T06:21:35.770Z,63.50
2019-04-01T06:24:05.421Z,63.00
2019-04-01T06:26:34.251Z,63.20
2019-04-01T06:29:03.874Z,62.40
2019-04-01T06:31:32.691Z,63.20
2019-04-01T06:34:01.591Z,64.90
2019-04-01T06:36:30.450Z,63.10
2019-04-01T06:38:59.320Z,62.70
2019-04-01T06:41:28.191Z,62.60
2019-04-01T06:43:57.120Z,59.70
2019-04-01T06:46:25.961Z,60.10
2019-04-01T06:48:54.740Z,60.70
2019-04-01T06:51:23.522Z,62.20
2019-04-01T06:53:52.500Z,63.70
2019-04-01T06:56:21.321Z,64.50
2019-04-01T06:58:50.112Z,63.50
2019-04-01T07:01:18.880Z,67.40
2019-04-01T07:03:47.680Z,64.90
2019-04-01T07:06:16.451Z,64.10
2019-04-01T07:08:45.380Z,63.00
2019-04-01T07:11:14.304Z,62.00
2019-04-01T07:13:43.171Z,62.20
2019-04-01T07:16:15.654Z,62.80
2019-04-01T07:18:42.610Z,62.30
2019-04-01T07:21:11.462Z,62.80
2019-04-01T07:23:40.200Z,59.70
2019-04-01T07:26:08.993Z,59.90
2019-04-01T07:28:37.810Z,60.80
2019-04-01T07:31:07.102Z,61.70
2019-04-01T07:33:36.061Z,58.90
2019-04-01T07:36:05.713Z,60.00
2019-04-01T07:38:34.651Z,58.80
2019-04-01T07:41:04.206Z,58.60
2019-04-01T07:43:33.300Z,58.90
2019-04-01T07:46:02.113Z,58.70
2019-04-01T07:48:30.902Z,56.60
2019-04-01T07:51:02.352Z,59.30
2019-04-01T07:53:31.351Z,60.00
2019-04-01T07:56:02.546Z,57.60
2019-04-01T07:58:30.711Z,59.90
2019-04-01T08:00:59.690Z,60.60
2019-04-01T08:03:28.690Z,59.10
2019-04-01T08:05:57.806Z,58.70
2019-04-01T08:08:26.770Z,58.90
2019-04-01T08:10:55.618Z,58.10
2019-04-01T08:13:24.411Z,59.70
2019-04-01T08:15:53.261Z,58.90
2019-04-01T08:18:22.272Z,66.90
2019-04-01T08:20:51.281Z,68.10
2019-04-01T08:23:20.443Z,67.80
2019-04-01T08:25:49.406Z,67.40
2019-04-01T08:28:18.231Z,66.70
2019-04-01T08:30:47.150Z,64.60
2019-04-01T08:33:16.145Z,65.40
2019-04-01T08:35:44.951Z,66.40
2019-04-01T08:38:13.814Z,63.90
2019-04-01T08:40:42.581Z,65.70
2019-04-01T08:43:11.620Z,66.80
2019-04-01T08:45:40.890Z,67.10
2019-04-01T08:48:09.659Z,64.70
2019-04-01T08:50:38.550Z,64.50
2019-04-01T08:53:07.344Z,64.50
2019-04-01T08:55:36.520Z,63.60
2019-04-01T08:58:06.125Z,58.50
2019-04-01T09:00:34.961Z,58.60
2019-04-01T09:03:04.877Z,59.10
2019-04-01T09:05:33.791Z,56.90
2019-04-01T09:08:21.881Z,56.30
2019-04-01T09:10:50.760Z,55.10
2019-04-01T09:13:19.661Z,54.90
2019-04-01T09:15:48.610Z,55.50
2019-04-01T09:18:17.520Z,55.20
2019-04-01T09:20:46.350Z,53.60
2019-04-01T09:23:15.191Z,51.80
2019-04-01T09:25:44.100Z,50.40
2019-04-01T09:28:12.900Z,49.10
2019-04-01T09:30:41.820Z,47.60
2019-04-01T09:33:10.540Z,48.00
2019-04-01T09:35:41.048Z,47.50
2019-04-01T09:38:10.334Z,46.70
2019-04-01T09:40:39.151Z,46.10
2019-04-01T09:43:07.842Z,45.40
2019-04-01T09:45:37.071Z,45.00
2019-04-01T09:48:07.381Z,45.50
2019-04-01T09:50:36.115Z,44.30
2019-04-01T09:53:05.294Z,44.60
2019-04-01T09:55:34.380Z,44.40
2019-04-01T09:58:04.160Z,44.30
2019-04-01T10:00:33.061Z,44.90
2019-04-01T10:03:01.920Z,44.10
2019-04-01T10:05:30.871Z,43.80
2019-04-01T10:07:59.800Z,45.50
2019-04-01T10:10:28.600Z,44.70
2019-04-01T10:12:57.551Z,43.30
2019-04-01T10:15:26.360Z,43.40
2019-04-01T10:17:55.312Z,42.20
2019-04-01T10:20:24.160Z,42.50
2019-04-01T10:22:53.080Z,41.20
2019-04-01T10:25:21.903Z,40.90
2019-04-01T10:27:51.171Z,39.60
2019-04-01T10:30:53.261Z,40.50
2019-04-01T10:33:53.042Z,40.50
2019-04-01T10:41:46.261Z,41.90
2019-04-01T10:44:15.151Z,41.10
2019-04-01T10:46:44.051Z,40.20
2019-04-01T10:49:12.876Z,40.70
2019-04-01T10:51:41.861Z,39.00
2019-04-01T10:54:10.708Z,39.00
2019-04-01T10:56:39.610Z,39.30
2019-04-01T10:59:08.371Z,39.60
2019-04-01T11:01:37.454Z,39.70
2019-04-01T11:04:06.578Z,40.50
2019-04-01T11:06:35.491Z,41.30
2019-04-01T11:09:06.582Z,41.70
2019-04-01T11:11:35.441Z,41.40
2019-04-01T11:14:05.306Z,43.70
2019-04-01T11:16:34.853Z,45.90
2019-04-01T11:19:04.355Z,46.60
2019-04-01T11:21:33.905Z,46.80
2019-04-01T11:24:07.376Z,48.30
2019-04-01T11:26:36.458Z,42.40
2019-04-01T11:29:05.303Z,43.80
2019-04-01T11:31:34.281Z,41.80
2019-04-01T11:34:04.124Z,43.10
2019-04-01T11:36:32.881Z,42.60
2019-04-01T11:39:01.830Z,42.00
2019-04-01T11:41:30.615Z,43.60
2019-04-01T11:43:59.539Z,43.10
2019-04-01T11:46:28.459Z,39.20
2019-04-01T11:48:57.367Z,42.10
2019-04-01T11:51:33.063Z,39.50
2019-04-01T11:53:56.771Z,40.10
2019-04-01T11:56:26.714Z,38.90
2019-04-01T11:58:56.937Z,38.30
2019-04-01T12:01:26.335Z,41.60
2019-04-01T12:03:55.210Z,40.70
2019-04-01T12:06:24.094Z,40.90
2019-04-01T12:08:53.080Z,41.20
2019-04-01T12:11:22.020Z,42.20
2019-04-01T12:13:50.793Z,39.80
2019-04-01T12:16:19.590Z,39.70
2019-04-01T12:18:48.321Z,39.30
2019-04-01T12:21:17.260Z,36.70
2019-04-01T12:23:46.040Z,37.50
2019-04-01T12:26:15.842Z,37.80
2019-04-01T12:28:45.370Z,38.00
2019-04-01T12:31:14.151Z,38.00
2019-04-01T12:33:42.971Z,40.10
2019-04-01T12:36:12.061Z,40.10
2019-04-01T12:38:41.101Z,40.10
2019-04-01T12:41:09.901Z,40.80
2019-04-01T12:43:38.730Z,41.60
2019-04-01T12:46:07.468Z,43.70
2019-04-01T12:48:36.491Z,43.00
2019-04-01T12:51:06.133Z,44.20
2019-04-01T12:53:35.021Z,45.10
2019-04-01T12:56:04.865Z,44.30
2019-04-01T12:58:33.820Z,43.30
2019-04-01T13:01:03.634Z,45.10
2019-04-01T13:03:33.000Z,43.20
2019-04-01T13:06:01.861Z,41.30
2019-04-01T13:08:30.851Z,42.10
2019-04-01T13:10:59.881Z,43.90
2019-04-01T13:13:28.720Z,43.10
2019-04-01T13:15:57.639Z,44.10
2019-04-01T13:18:26.410Z,45.50
2019-04-01T13:20:55.401Z,43.50
2019-04-01T13:23:24.510Z,44.40
2019-04-01T13:25:53.540Z,44.40
2019-04-01T13:28:22.390Z,44.70
2019-04-01T13:30:51.241Z,45.60
2019-04-01T13:33:20.160Z,43.70
2019-04-01T13:35:49.560Z,43.50
2019-04-01T13:38:18.560Z,43.30
2019-04-01T13:40:47.531Z,45.20
2019-04-01T13:43:17.050Z,43.90
2019-04-01T13:45:46.080Z,43.90
2019-04-01T13:48:14.881Z,44.60
2019-04-01T13:50:43.593Z,44.20
2019-04-01T13:53:12.431Z,46.10
2019-04-01T13:55:41.460Z,45.60
2019-04-01T13:58:10.936Z,45.20
2019-04-01T14:00:40.210Z,44.60
2019-04-01T14:03:12.106Z,44.60
2019-04-01T14:05:40.980Z,43.90
2019-04-01T14:08:10.040Z,43.80
2019-04-01T14:10:40.535Z,43.40
2019-04-01T14:13:09.101Z,45.00
2019-04-01T14:15:37.970Z,43.90
2019-04-01T14:18:06.947Z,44.60
2019-04-01T14:20:35.863Z,44.50
2019-04-01T14:23:05.528Z,42.60
2019-04-01T14:25:34.991Z,44.00
2019-04-01T14:28:04.995Z,46.80
2019-04-01T14:30:33.831Z,45.20
2019-04-01T14:33:03.114Z,44.10
2019-04-01T14:35:32.830Z,43.90
2019-04-01T14:38:01.731Z,44.20
2019-04-01T14:40:32.600Z,44.20
2019-04-01T14:43:01.021Z,45.00
2019-04-01T14:45:29.792Z,44.30
2019-04-01T14:47:59.010Z,43.30
2019-04-01T14:50:27.880Z,44.10
2019-04-01T14:52:56.835Z,43.80
2019-04-01T14:55:25.700Z,42.20
2019-04-01T14:57:54.981Z,42.60
2019-04-01T15:00:24.520Z,43.30
2019-04-01T15:02:53.601Z,43.40
2019-04-01T15:05:22.482Z,44.30
2019-04-01T15:07:51.440Z,45.00
2019-04-01T15:10:20.300Z,45.20
2019-04-01T15:13:04.020Z,45.00
2019-04-01T15:15:19.661Z,45.80
2019-04-01T15:17:48.500Z,42.30
2019-04-01T15:20:19.532Z,42.30
2019-04-01T15:22:48.411Z,42.30
2019-04-01T15:25:17.202Z,42.60
2019-04-01T15:27:46.130Z,42.40
2019-04-01T15:30:15.740Z,43.80
2019-04-01T15:32:44.565Z,43.60
2019-04-01T15:35:13.320Z,43.20
2019-04-01T15:37:42.353Z,43.50
2019-04-01T15:40:12.331Z,43.50
2019-04-01T15:42:41.211Z,43.50
2019-04-01T15:45:09.931Z,45.50
2019-04-01T15:47:38.884Z,44.60
2019-04-01T15:50:09.308Z,43.50
2019-04-01T15:52:38.332Z,44.00
2019-04-01T15:55:07.208Z,45.50
2019-04-01T15:57:36.111Z,45.50
2019-04-01T16:00:06.180Z,46.40
2019-04-01T16:02:35.670Z,46.60
2019-04-01T16:05:06.598Z,45.10
2019-04-01T16:07:35.459Z,45.20
2019-04-01T16:10:08.871Z,45.60
2019-04-01T16:12:37.710Z,46.20
2019-04-01T16:15:09.050Z,47.60
2019-04-01T16:17:38.161Z,46.40
2019-04-01T16:20:07.068Z,47.10
2019-04-01T16:22:36.051Z,47.90
2019-04-01T16:25:06.757Z,49.20
2019-04-01T16:27:35.712Z,49.80
2019-04-01T16:30:07.292Z,50.90
2019-04-01T16:32:35.570Z,49.50
2019-04-01T16:35:06.409Z,50.60
2019-04-01T16:37:35.440Z,47.90
2019-04-01T16:40:06.029Z,50.60
2019-04-01T16:42:35.480Z,49.70
2019-04-01T16:45:07.071Z,49.80
2019-04-01T16:47:36.220Z,50.20
2019-04-01T16:50:09.470Z,50.80
2019-04-01T16:52:38.391Z,51.40
2019-04-01T16:55:07.852Z,50.40
2019-04-01T16:57:36.743Z,50.50
2019-04-01T17:00:09.830Z,51.00
2019-04-01T17:02:39.640Z,50.50
2019-04-01T17:05:08.325Z,51.10
2019-04-01T17:07:37.191Z,50.50
2019-04-01T17:10:06.064Z,51.00
2019-04-01T17:12:34.971Z,51.80
2019-04-01T17:15:05.309Z,51.30
2019-04-01T17:17:34.231Z,52.40
2019-04-01T17:20:04.040Z,51.50
2019-04-01T17:22:33.632Z,51.80
2019-04-01T17:25:03.611Z,51.40
2019-04-01T17:27:32.901Z,51.30
2019-04-01T17:30:01.832Z,51.70
2019-04-01T17:32:31.261Z,52.10
2019-04-01T17:35:00.103Z,52.30
2019-04-01T17:37:29.153Z,52.30
2019-04-01T17:39:59.480Z,52.70
2019-04-01T17:42:28.384Z,52.00
2019-04-01T17:45:04.646Z,52.40
2019-04-01T17:47:35.370Z,52.80
2019-04-01T17:50:06.349Z,52.20
2019-04-01T17:52:35.570Z,52.10
2019-04-01T17:55:05.277Z,52.00
2019-04-01T17:57:34.561Z,52.30
2019-04-01T18:00:05.417Z,52.20
2019-04-01T18:02:35.177Z,51.80
2019-04-01T18:05:06.426Z,51.60
2019-04-01T18:07:36.221Z,51.90
2019-04-01T18:10:06.921Z,51.90
2019-04-01T18:12:36.641Z,51.10
2019-04-01T18:15:06.193Z,52.00
2019-04-01T18:17:35.583Z,51.60
2019-04-01T18:20:06.995Z,51.70
2019-04-01T18:22:36.031Z,51.60
2019-04-01T18:25:06.054Z,52.50
2019-04-01T18:27:35.021Z,51.80
2019-04-01T18:30:07.583Z,52.20
2019-04-01T18:32:36.961Z,51.80
2019-04-01T18:35:06.925Z,51.00
2019-04-01T18:37:35.770Z,51.40
2019-04-01T18:40:05.451Z,51.40
2019-04-01T18:42:34.187Z,50.70
2019-04-01T18:45:05.044Z,51.10
2019-04-01T18:47:34.071Z,52.50
2019-04-01T18:50:03.410Z,52.30
2019-04-01T18:52:32.751Z,52.30
2019-04-01T18:55:02.236Z,51.30
2019-04-01T18:57:32.301Z,51.30
2019-04-01T19:00:01.762Z,51.50
2019-04-01T19:02:31.222Z,52.30
2019-04-01T19:05:00.371Z,51.90
2019-04-01T19:07:29.372Z,51.00
2019-04-01T19:10:05.951Z,52.10
2019-04-01T19:12:28.212Z,53.40
2019-04-01T19:14:57.081Z,51.70
2019-04-01T19:17:26.053Z,52.30
2019-04-01T19:19:54.901Z,51.40
2019-04-01T19:22:23.810Z,53.50
2019-04-01T19:24:52.820Z,52.60
2019-04-01T19:27:22.149Z,52.70
2019-04-01T19:29:51.601Z,53.10
2019-04-01T19:32:20.556Z,52.10
2019-04-01T19:34:49.491Z,53.00
2019-04-01T19:37:18.403Z,52.90
2019-04-01T19:39:47.385Z,51.90
2019-04-01T19:42:17.934Z,53.40
2019-04-01T19:44:46.930Z,53.10
2019-04-01T19:47:15.671Z,52.90
2019-04-01T19:49:44.580Z,53.40
2019-04-01T19:52:13.461Z,51.40
2019-04-01T19:54:42.581Z,51.00
2019-04-01T19:57:11.431Z,51.20
2019-04-01T19:59:40.372Z,52.20
2019-04-01T20:02:09.687Z,52.30
2019-04-01T20:04:39.020Z,52.00
2019-04-01T20:07:07.841Z,52.60
2019-04-01T20:09:36.760Z,53.60
2019-04-01T20:12:06.046Z,52.90
2019-04-01T20:14:34.971Z,53.00
2019-04-01T20:17:04.793Z,53.70
2019-04-01T20:19:34.103Z,53.60
2019-04-01T20:22:04.160Z,53.90
2019-04-01T20:24:33.049Z,54.40
2019-04-01T20:27:01.850Z,53.30
2019-04-01T20:29:30.931Z,54.40
2019-04-01T20:31:59.851Z,54.30
2019-04-01T20:34:31.955Z,54.30
2019-04-01T20:37:00.213Z,54.70
2019-04-01T20:39:29.480Z,54.40
2019-04-01T20:41:58.211Z,54.80
2019-04-01T20:44:27.251Z,55.30
2019-04-01T20:46:56.392Z,55.70
2019-04-01T20:49:25.362Z,55.80
2019-04-01T20:51:54.401Z,56.00
2019-04-01T20:54:23.610Z,56.40
2019-04-01T20:56:52.520Z,56.70
2019-04-01T20:59:21.300Z,56.80
2019-04-01T21:01:50.292Z,56.90
2019-04-01T21:04:19.069Z,56.50
2019-04-01T21:06:48.060Z,56.90
2019-04-01T21:09:16.880Z,57.70
2019-04-01T21:11:45.791Z,57.50
2019-04-01T21:14:14.600Z,57.70
2019-04-01T21:16:44.702Z,57.60
2019-04-01T21:25:16.622Z,58.20
2019-04-01T21:27:45.812Z,58.30
2019-04-01T21:30:14.908Z,58.60
2019-04-01T21:32:44.350Z,58.70
2019-04-01T21:35:14.750Z,58.80
2019-04-01T21:37:44.158Z,58.90
2019-04-01T21:40:13.068Z,58.80
2019-04-01T21:42:43.274Z,59.20
2019-04-01T21:45:12.988Z,59.40
2019-04-01T21:47:42.090Z,59.10
2019-04-01T21:50:11.269Z,58.80
2019-04-01T21:52:40.068Z,58.60
2019-04-01T21:55:09.568Z,59.10
2019-04-01T21:57:38.849Z,58.70
2019-04-01T22:00:10.448Z,59.30
2019-04-01T22:02:40.691Z,59.20
2019-04-01T22:05:10.322Z,59.50
2019-04-01T22:07:40.029Z,60.60
2019-04-01T22:10:08.909Z,62.10
2019-04-01T22:12:38.308Z,62.90
2019-04-01T22:15:07.630Z,63.50
2019-04-01T22:17:37.469Z,63.80
2019-04-01T22:20:06.808Z,64.10
2019-04-01T22:22:36.142Z,64.00
2019-04-01T22:25:06.148Z,64.20
2019-04-01T22:27:35.068Z,63.80
2019-04-01T22:30:07.048Z,63.80
2019-04-01T22:32:36.189Z,64.30
2019-04-01T22:35:07.990Z,64.60
2019-04-01T22:37:37.201Z,63.00
2019-04-01T22:40:08.627Z,63.20
2019-04-01T22:42:37.789Z,63.20
2019-04-01T22:45:07.868Z,63.10
2019-04-01T22:47:37.289Z,63.60
2019-04-01T22:50:08.088Z,63.00
2019-04-01T22:52:41.895Z,62.80
2019-04-01T22:55:09.469Z,62.70
2019-04-01T22:57:38.368Z,62.60
2019-04-01T23:00:08.028Z,62.30
2019-04-01T23:02:37.028Z,62.30
2019-04-01T23:05:08.184Z,63.00
2019-04-01T23:07:37.508Z,63.30
2019-04-01T23:10:07.542Z,63.40
2019-04-01T23:12:36.328Z,63.50
2019-04-01T23:15:07.109Z,64.30
2019-04-01T23:17:38.306Z,63.90
2019-04-01T23:20:09.369Z,63.20
2019-04-01T23:22:38.269Z,63.90
2019-04-01T23:25:07.868Z,63.40
2019-04-01T23:27:36.696Z,63.90
2019-04-01T23:30:08.898Z,63.80
2019-04-01T23:32:38.188Z,63.40
2019-04-01T23:35:07.228Z,63.70
2019-04-01T23:37:38.079Z,63.50
2019-04-01T23:40:07.069Z,63.60
2019-04-01T23:42:37.947Z,64.10
2019-04-01T23:45:07.548Z,64.60
2019-04-01T23:47:36.856Z,65.20
2019-04-01T23:50:09.126Z,66.30
2019-04-01T23:52:38.810Z,65.40
2019-04-01T23:55:07.872Z,66.40
2019-04-01T23:57:37.252Z,64.40
